sensor_id;sensor_type;location;lat;lon;timestamp;P1;durP1;ratioP1;P2;durP2;ratioP2
57303;SDS011;43150;50.986;18.208;2022-09-27T00:02:23;27.50;;;19.30;;
57303;SDS011;43150;50.986;18.208;2022-09-27T00:04:49;40.90;;;20.20;;
57303;SDS011;43150;50.986;18.208;2022-09-27T00:07:15;34.90;;;19.50;;
57303;SDS011;43150;50.986;18.208;2022-09-27T00:09:41;41.50;;;19.90;;
57303;SDS011;43150;50.986;18.208;2022-09-27T00:12:07;32.20;;;20.20;;
57303;SDS011;43150;50.986;18.208;2022-09-27T00:14:42;34.40;;;21.50;;
57303;SDS011;43150;50.986;18.208;2022-09-27T00:17:08;41.50;;;23.40;;
57303;SDS011;43150;50.986;18.208;2022-09-27T00:19:34;54.40;;;22.30;;
57303;SDS011;43150;50.986;18.208;2022-09-27T00:22:00;142.10;;;24.30;;
57303;SDS011;43150;50.986;18.208;2022-09-27T00:24:26;173.90;;;28.00;;
57303;SDS011;43150;50.986;18.208;2022-09-27T00:26:51;189.70;;;26.00;;
57303;SDS011;43150;50.986;18.208;2022-09-27T00:29:17;31.80;;;18.10;;
57303;SDS011;43150;50.986;18.208;2022-09-27T00:31:44;149.10;;;20.50;;
57303;SDS011;43150;50.986;18.208;2022-09-27T00:34:17;102.10;;;20.70;;
57303;SDS011;43150;50.986;18.208;2022-09-27T00:36:47;83.00;;;19.40;;
57303;SDS011;43150;50.986;18.208;2022-09-27T00:39:14;74.90;;;18.60;;
57303;SDS011;43150;50.986;18.208;2022-09-27T00:41:47;39.80;;;17.60;;
57303;SDS011;43150;50.986;18.208;2022-09-27T00:55:56;20.30;;;18.30;;
57303;SDS011;43150;50.986;18.208;2022-09-27T00:58:28;20.00;;;18.10;;
57303;SDS011;43150;50.986;18.208;2022-09-27T01:00:57;20.20;;;18.30;;
57303;SDS011;43150;50.986;18.208;2022-09-27T01:03:33;19.50;;;17.80;;
57303;SDS011;43150;50.986;18.208;2022-09-27T01:06:02;19.60;;;17.80;;
57303;SDS011;43150;50.986;18.208;2022-09-27T01:08:29;19.50;;;17.40;;
57303;SDS011;43150;50.986;18.208;2022-09-27T01:11:19;17.50;;;14.20;;
57303;SDS011;43150;50.986;18.208;2022-09-27T01:14:27;18.80;;;17.10;;
57303;SDS011;43150;50.986;18.208;2022-09-27T01:17:14;18.70;;;17.00;;
57303;SDS011;43150;50.986;18.208;2022-09-27T01:22:31;18.80;;;17.00;;
57303;SDS011;43150;50.986;18.208;2022-09-27T01:31:05;18.60;;;16.80;;
57303;SDS011;43150;50.986;18.208;2022-09-27T01:47:48;18.90;;;17.10;;
57303;SDS011;43150;50.986;18.208;2022-09-27T01:50:16;19.00;;;17.10;;
57303;SDS011;43150;50.986;18.208;2022-09-27T01:53:08;20.10;;;18.20;;
57303;SDS011;43150;50.986;18.208;2022-09-27T01:55:40;19.60;;;17.80;;
57303;SDS011;43150;50.986;18.208;2022-09-27T02:00:36;19.10;;;17.20;;
57303;SDS011;43150;50.986;18.208;2022-09-27T02:03:11;18.50;;;14.50;;
57303;SDS011;43150;50.986;18.208;2022-09-27T02:06:01;20.20;;;18.20;;
57303;SDS011;43150;50.986;18.208;2022-09-27T02:08:51;20.80;;;18.80;;
57303;SDS011;43150;50.986;18.208;2022-09-27T02:11:22;20.60;;;18.70;;
57303;SDS011;43150;50.986;18.208;2022-09-27T02:13:49;21.40;;;19.50;;
57303;SDS011;43150;50.986;18.208;2022-09-27T02:16:50;21.40;;;19.40;;
57303;SDS011;43150;50.986;18.208;2022-09-27T02:19:22;21.70;;;19.50;;
57303;SDS011;43150;50.986;18.208;2022-09-27T02:24:46;22.00;;;19.90;;
57303;SDS011;43150;50.986;18.208;2022-09-27T02:27:19;21.40;;;19.30;;
57303;SDS011;43150;50.986;18.208;2022-09-27T02:29:51;21.90;;;19.70;;
57303;SDS011;43150;50.986;18.208;2022-09-27T02:32:22;21.90;;;19.70;;
57303;SDS011;43150;50.986;18.208;2022-09-27T02:34:47;22.90;;;17.60;;
57303;SDS011;43150;50.986;18.208;2022-09-27T02:37:15;22.80;;;20.60;;
57303;SDS011;43150;50.986;18.208;2022-09-27T02:39:40;23.00;;;20.70;;
57303;SDS011;43150;50.986;18.208;2022-09-27T02:42:06;23.40;;;21.10;;
57303;SDS011;43150;50.986;18.208;2022-09-27T02:44:32;23.00;;;20.90;;
57303;SDS011;43150;50.986;18.208;2022-09-27T02:55:29;24.50;;;22.10;;
57303;SDS011;43150;50.986;18.208;2022-09-27T03:06:22;23.10;;;20.90;;
57303;SDS011;43150;50.986;18.208;2022-09-27T03:08:49;23.60;;;21.30;;
57303;SDS011;43150;50.986;18.208;2022-09-27T03:11:15;23.50;;;21.30;;
57303;SDS011;43150;50.986;18.208;2022-09-27T03:13:47;23.60;;;21.30;;
57303;SDS011;43150;50.986;18.208;2022-09-27T03:16:13;22.00;;;18.30;;
57303;SDS011;43150;50.986;18.208;2022-09-27T03:18:40;23.60;;;21.30;;
57303;SDS011;43150;50.986;18.208;2022-09-27T03:21:07;23.30;;;21.10;;
57303;SDS011;43150;50.986;18.208;2022-09-27T03:23:33;23.70;;;21.40;;
57303;SDS011;43150;50.986;18.208;2022-09-27T03:25:59;21.10;;;17.70;;
57303;SDS011;43150;50.986;18.208;2022-09-27T03:28:24;24.00;;;21.80;;
57303;SDS011;43150;50.986;18.208;2022-09-27T03:30:51;24.10;;;21.80;;
57303;SDS011;43150;50.986;18.208;2022-09-27T03:33:17;25.20;;;22.80;;
57303;SDS011;43150;50.986;18.208;2022-09-27T03:35:45;25.60;;;23.10;;
57303;SDS011;43150;50.986;18.208;2022-09-27T03:38:11;25.30;;;23.00;;
57303;SDS011;43150;50.986;18.208;2022-09-27T03:40:37;24.60;;;20.90;;
57303;SDS011;43150;50.986;18.208;2022-09-27T03:43:03;26.50;;;23.90;;
57303;SDS011;43150;50.986;18.208;2022-09-27T03:45:28;26.50;;;24.00;;
57303;SDS011;43150;50.986;18.208;2022-09-27T03:47:55;25.90;;;23.50;;
57303;SDS011;43150;50.986;18.208;2022-09-27T03:50:20;29.20;;;20.40;;
57303;SDS011;43150;50.986;18.208;2022-09-27T03:52:47;25.90;;;23.50;;
57303;SDS011;43150;50.986;18.208;2022-09-27T03:55:13;26.00;;;23.70;;
57303;SDS011;43150;50.986;18.208;2022-09-27T03:57:43;26.20;;;23.50;;
57303;SDS011;43150;50.986;18.208;2022-09-27T04:00:10;25.40;;;23.00;;
57303;SDS011;43150;50.986;18.208;2022-09-27T04:02:36;23.50;;;19.70;;
57303;SDS011;43150;50.986;18.208;2022-09-27T04:05:02;25.30;;;22.90;;
57303;SDS011;43150;50.986;18.208;2022-09-27T04:07:44;25.90;;;23.40;;
57303;SDS011;43150;50.986;18.208;2022-09-27T04:10:11;25.60;;;23.20;;
57303;SDS011;43150;50.986;18.208;2022-09-27T04:12:38;25.00;;;22.70;;
57303;SDS011;43150;50.986;18.208;2022-09-27T04:15:05;24.00;;;21.80;;
57303;SDS011;43150;50.986;18.208;2022-09-27T04:17:32;24.10;;;21.80;;
57303;SDS011;43150;50.986;18.208;2022-09-27T04:20:06;22.10;;;18.60;;
57303;SDS011;43150;50.986;18.208;2022-09-27T04:22:33;24.50;;;22.30;;
57303;SDS011;43150;50.986;18.208;2022-09-27T04:25:19;24.10;;;22.00;;
57303;SDS011;43150;50.986;18.208;2022-09-27T04:27:45;24.30;;;22.10;;
57303;SDS011;43150;50.986;18.208;2022-09-27T04:30:12;20.70;;;18.40;;
57303;SDS011;43150;50.986;18.208;2022-09-27T04:32:42;24.20;;;21.90;;
57303;SDS011;43150;50.986;18.208;2022-09-27T04:35:09;23.60;;;21.40;;
57303;SDS011;43150;50.986;18.208;2022-09-27T04:37:54;23.50;;;21.30;;
57303;SDS011;43150;50.986;18.208;2022-09-27T04:40:21;24.00;;;21.80;;
57303;SDS011;43150;50.986;18.208;2022-09-27T04:42:49;23.80;;;21.60;;
57303;SDS011;43150;50.986;18.208;2022-09-27T04:45:17;24.10;;;21.90;;
57303;SDS011;43150;50.986;18.208;2022-09-27T04:47:47;23.00;;;20.90;;
57303;SDS011;43150;50.986;18.208;2022-09-27T04:50:14;21.50;;;18.00;;
57303;SDS011;43150;50.986;18.208;2022-09-27T04:52:41;22.80;;;20.70;;
57303;SDS011;43150;50.986;18.208;2022-09-27T04:55:07;22.30;;;20.20;;
57303;SDS011;43150;50.986;18.208;2022-09-27T04:57:34;22.40;;;20.30;;
57303;SDS011;43150;50.986;18.208;2022-09-27T04:59:59;22.10;;;20.00;;
57303;SDS011;43150;50.986;18.208;2022-09-27T05:02:26;21.60;;;19.50;;
57303;SDS011;43150;50.986;18.208;2022-09-27T05:04:53;21.90;;;19.90;;
57303;SDS011;43150;50.986;18.208;2022-09-27T05:07:25;21.90;;;19.70;;
57303;SDS011;43150;50.986;18.208;2022-09-27T05:09:51;21.80;;;19.70;;
57303;SDS011;43150;50.986;18.208;2022-09-27T05:12:17;21.90;;;19.70;;
57303;SDS011;43150;50.986;18.208;2022-09-27T05:14:43;22.00;;;19.90;;
57303;SDS011;43150;50.986;18.208;2022-09-27T05:17:09;21.80;;;19.70;;
57303;SDS011;43150;50.986;18.208;2022-09-27T05:19:35;21.70;;;19.70;;
57303;SDS011;43150;50.986;18.208;2022-09-27T05:22:04;21.60;;;19.50;;
57303;SDS011;43150;50.986;18.208;2022-09-27T05:24:31;20.90;;;18.90;;
57303;SDS011;43150;50.986;18.208;2022-09-27T05:26:58;21.10;;;19.10;;
57303;SDS011;43150;50.986;18.208;2022-09-27T05:29:25;21.00;;;19.00;;
57303;SDS011;43150;50.986;18.208;2022-09-27T05:31:51;20.40;;;18.40;;
57303;SDS011;43150;50.986;18.208;2022-09-27T05:34:17;21.30;;;19.30;;
57303;SDS011;43150;50.986;18.208;2022-09-27T05:36:48;20.30;;;18.40;;
57303;SDS011;43150;50.986;18.208;2022-09-27T05:39:14;20.60;;;18.70;;
57303;SDS011;43150;50.986;18.208;2022-09-27T05:41:41;20.60;;;18.60;;
57303;SDS011;43150;50.986;18.208;2022-09-27T05:44:12;19.00;;;17.10;;
57303;SDS011;43150;50.986;18.208;2022-09-27T05:46:39;20.50;;;18.50;;
57303;SDS011;43150;50.986;18.208;2022-09-27T05:49:04;20.30;;;18.30;;
57303;SDS011;43150;50.986;18.208;2022-09-27T05:54:03;20.00;;;18.10;;
57303;SDS011;43150;50.986;18.208;2022-09-27T05:56:32;19.60;;;17.70;;
57303;SDS011;43150;50.986;18.208;2022-09-27T05:58:57;19.50;;;17.70;;
57303;SDS011;43150;50.986;18.208;2022-09-27T06:01:24;19.60;;;17.70;;
57303;SDS011;43150;50.986;18.208;2022-09-27T06:03:51;19.00;;;17.20;;
57303;SDS011;43150;50.986;18.208;2022-09-27T06:06:17;19.10;;;17.30;;
57303;SDS011;43150;50.986;18.208;2022-09-27T06:08:44;18.50;;;16.60;;
57303;SDS011;43150;50.986;18.208;2022-09-27T06:11:11;18.70;;;16.90;;
57303;SDS011;43150;50.986;18.208;2022-09-27T06:13:37;17.70;;;16.10;;
57303;SDS011;43150;50.986;18.208;2022-09-27T06:16:04;17.60;;;16.00;;
57303;SDS011;43150;50.986;18.208;2022-09-27T06:18:31;17.20;;;15.50;;
57303;SDS011;43150;50.986;18.208;2022-09-27T06:21:00;17.80;;;16.00;;
57303;SDS011;43150;50.986;18.208;2022-09-27T06:23:27;17.60;;;15.80;;
57303;SDS011;43150;50.986;18.208;2022-09-27T06:25:53;17.00;;;15.30;;
57303;SDS011;43150;50.986;18.208;2022-09-27T06:28:19;17.40;;;15.70;;
57303;SDS011;43150;50.986;18.208;2022-09-27T06:30:49;19.00;;;17.00;;
57303;SDS011;43150;50.986;18.208;2022-09-27T06:33:16;17.60;;;15.80;;
57303;SDS011;43150;50.986;18.208;2022-09-27T06:35:44;18.20;;;16.40;;
57303;SDS011;43150;50.986;18.208;2022-09-27T06:38:11;17.60;;;15.80;;
57303;SDS011;43150;50.986;18.208;2022-09-27T06:40:40;17.50;;;15.90;;
57303;SDS011;43150;50.986;18.208;2022-09-27T06:45:58;17.80;;;16.00;;
57303;SDS011;43150;50.986;18.208;2022-09-27T06:48:32;18.00;;;16.20;;
57303;SDS011;43150;50.986;18.208;2022-09-27T06:50:58;17.50;;;15.80;;
57303;SDS011;43150;50.986;18.208;2022-09-27T06:53:24;18.00;;;16.20;;
57303;SDS011;43150;50.986;18.208;2022-09-27T06:55:51;17.00;;;15.30;;
57303;SDS011;43150;50.986;18.208;2022-09-27T06:58:20;17.40;;;15.80;;
57303;SDS011;43150;50.986;18.208;2022-09-27T07:01:04;17.50;;;15.60;;
57303;SDS011;43150;50.986;18.208;2022-09-27T07:03:30;17.50;;;15.80;;
57303;SDS011;43150;50.986;18.208;2022-09-27T07:05:57;16.50;;;14.90;;
57303;SDS011;43150;50.986;18.208;2022-09-27T07:08:29;16.30;;;14.60;;
57303;SDS011;43150;50.986;18.208;2022-09-27T07:10:59;17.20;;;15.60;;
57303;SDS011;43150;50.986;18.208;2022-09-27T07:13:29;16.10;;;14.60;;
57303;SDS011;43150;50.986;18.208;2022-09-27T07:15:57;16.60;;;14.90;;
57303;SDS011;43150;50.986;18.208;2022-09-27T07:18:23;15.30;;;13.80;;
57303;SDS011;43150;50.986;18.208;2022-09-27T07:20:48;16.40;;;14.70;;
57303;SDS011;43150;50.986;18.208;2022-09-27T07:23:15;15.70;;;14.20;;
57303;SDS011;43150;50.986;18.208;2022-09-27T07:25:46;15.90;;;14.40;;
57303;SDS011;43150;50.986;18.208;2022-09-27T07:28:15;15.20;;;13.70;;
57303;SDS011;43150;50.986;18.208;2022-09-27T07:30:43;15.40;;;13.90;;
57303;SDS011;43150;50.986;18.208;2022-09-27T07:33:08;15.00;;;13.60;;
57303;SDS011;43150;50.986;18.208;2022-09-27T07:35:37;14.90;;;13.30;;
57303;SDS011;43150;50.986;18.208;2022-09-27T07:38:08;14.50;;;13.10;;
57303;SDS011;43150;50.986;18.208;2022-09-27T07:40:37;14.70;;;13.30;;
57303;SDS011;43150;50.986;18.208;2022-09-27T07:43:04;14.80;;;13.30;;
57303;SDS011;43150;50.986;18.208;2022-09-27T07:45:30;14.70;;;13.20;;
57303;SDS011;43150;50.986;18.208;2022-09-27T07:47:56;14.50;;;13.00;;
57303;SDS011;43150;50.986;18.208;2022-09-27T07:50:22;13.50;;;12.20;;
57303;SDS011;43150;50.986;18.208;2022-09-27T07:52:48;14.10;;;12.70;;
57303;SDS011;43150;50.986;18.208;2022-09-27T07:55:15;13.20;;;12.00;;
57303;SDS011;43150;50.986;18.208;2022-09-27T07:57:41;14.00;;;12.60;;
57303;SDS011;43150;50.986;18.208;2022-09-27T08:00:10;13.60;;;12.20;;
57303;SDS011;43150;50.986;18.208;2022-09-27T08:02:41;12.50;;;11.20;;
57303;SDS011;43150;50.986;18.208;2022-09-27T08:05:07;12.60;;;11.30;;
57303;SDS011;43150;50.986;18.208;2022-09-27T08:07:33;12.70;;;11.30;;
57303;SDS011;43150;50.986;18.208;2022-09-27T08:10:02;12.80;;;11.60;;
57303;SDS011;43150;50.986;18.208;2022-09-27T08:12:28;12.70;;;11.50;;
57303;SDS011;43150;50.986;18.208;2022-09-27T08:14:54;12.60;;;11.40;;
57303;SDS011;43150;50.986;18.208;2022-09-27T08:17:22;12.30;;;11.10;;
57303;SDS011;43150;50.986;18.208;2022-09-27T08:19:49;12.30;;;11.10;;
57303;SDS011;43150;50.986;18.208;2022-09-27T08:22:15;12.00;;;10.70;;
57303;SDS011;43150;50.986;18.208;2022-09-27T08:24:41;11.70;;;10.60;;
57303;SDS011;43150;50.986;18.208;2022-09-27T08:27:07;11.70;;;10.60;;
57303;SDS011;43150;50.986;18.208;2022-09-27T08:29:33;11.70;;;10.60;;
57303;SDS011;43150;50.986;18.208;2022-09-27T08:31:59;11.20;;;10.10;;
57303;SDS011;43150;50.986;18.208;2022-09-27T08:34:25;10.80;;;9.80;;
57303;SDS011;43150;50.986;18.208;2022-09-27T08:36:52;10.90;;;9.50;;
57303;SDS011;43150;50.986;18.208;2022-09-27T08:39:20;10.20;;;9.20;;
57303;SDS011;43150;50.986;18.208;2022-09-27T08:45:23;10.70;;;9.70;;
57303;SDS011;43150;50.986;18.208;2022-09-27T08:48:02;10.70;;;9.60;;
57303;SDS011;43150;50.986;18.208;2022-09-27T08:50:29;11.30;;;10.20;;
57303;SDS011;43150;50.986;18.208;2022-09-27T08:53:01;10.00;;;9.00;;
57303;SDS011;43150;50.986;18.208;2022-09-27T08:55:52;10.80;;;9.70;;
57303;SDS011;43150;50.986;18.208;2022-09-27T09:00:59;10.20;;;9.20;;
57303;SDS011;43150;50.986;18.208;2022-09-27T09:03:31;10.00;;;9.00;;
57303;SDS011;43150;50.986;18.208;2022-09-27T09:09:24;9.50;;;8.50;;
57303;SDS011;43150;50.986;18.208;2022-09-27T09:17:54;8.30;;;7.50;;
57303;SDS011;43150;50.986;18.208;2022-09-27T09:23:38;10.60;;;8.20;;
57303;SDS011;43150;50.986;18.208;2022-09-27T09:31:49;8.80;;;7.90;;
57303;SDS011;43150;50.986;18.208;2022-09-27T09:34:26;8.70;;;7.90;;
57303;SDS011;43150;50.986;18.208;2022-09-27T09:37:15;8.90;;;7.90;;
57303;SDS011;43150;50.986;18.208;2022-09-27T09:39:52;8.70;;;7.70;;
57303;SDS011;43150;50.986;18.208;2022-09-27T09:42:28;9.50;;;8.60;;
57303;SDS011;43150;50.986;18.208;2022-09-27T09:45:03;9.50;;;8.50;;
57303;SDS011;43150;50.986;18.208;2022-09-27T09:50:02;9.30;;;8.20;;
57303;SDS011;43150;50.986;18.208;2022-09-27T09:52:45;9.60;;;8.60;;
57303;SDS011;43150;50.986;18.208;2022-09-27T09:55:19;9.00;;;7.90;;
57303;SDS011;43150;50.986;18.208;2022-09-27T10:00:31;8.30;;;7.20;;
57303;SDS011;43150;50.986;18.208;2022-09-27T10:02:57;9.10;;;8.10;;
57303;SDS011;43150;50.986;18.208;2022-09-27T10:05:25;8.70;;;7.80;;
57303;SDS011;43150;50.986;18.208;2022-09-27T10:07:52;8.80;;;7.70;;
57303;SDS011;43150;50.986;18.208;2022-09-27T10:10:19;8.10;;;7.30;;
57303;SDS011;43150;50.986;18.208;2022-09-27T10:12:45;7.90;;;7.10;;
57303;SDS011;43150;50.986;18.208;2022-09-27T10:15:19;7.70;;;6.90;;
57303;SDS011;43150;50.986;18.208;2022-09-27T10:17:49;8.20;;;7.20;;
57303;SDS011;43150;50.986;18.208;2022-09-27T10:20:42;8.70;;;7.80;;
57303;SDS011;43150;50.986;18.208;2022-09-27T10:23:10;8.40;;;7.60;;
57303;SDS011;43150;50.986;18.208;2022-09-27T10:25:51;8.60;;;7.30;;
57303;SDS011;43150;50.986;18.208;2022-09-27T10:28:40;7.90;;;7.10;;
57303;SDS011;43150;50.986;18.208;2022-09-27T10:31:10;8.70;;;7.80;;
57303;SDS011;43150;50.986;18.208;2022-09-27T10:33:57;8.90;;;7.70;;
57303;SDS011;43150;50.986;18.208;2022-09-27T10:36:28;9.80;;;7.90;;
57303;SDS011;43150;50.986;18.208;2022-09-27T10:38:56;9.10;;;8.00;;
57303;SDS011;43150;50.986;18.208;2022-09-27T10:41:36;8.90;;;7.50;;
57303;SDS011;43150;50.986;18.208;2022-09-27T10:46:59;11.20;;;7.00;;
57303;SDS011;43150;50.986;18.208;2022-09-27T10:49:31;8.20;;;7.20;;
57303;SDS011;43150;50.986;18.208;2022-09-27T10:52:02;9.70;;;7.20;;
57303;SDS011;43150;50.986;18.208;2022-09-27T10:54:34;7.00;;;6.30;;
57303;SDS011;43150;50.986;18.208;2022-09-27T10:57:02;7.80;;;6.70;;
57303;SDS011;43150;50.986;18.208;2022-09-27T10:59:30;8.00;;;7.20;;
57303;SDS011;43150;50.986;18.208;2022-09-27T11:01:59;8.40;;;7.50;;
57303;SDS011;43150;50.986;18.208;2022-09-27T11:04:29;8.40;;;7.50;;
57303;SDS011;43150;50.986;18.208;2022-09-27T11:09:52;9.10;;;8.20;;
57303;SDS011;43150;50.986;18.208;2022-09-27T11:12:34;8.60;;;7.80;;
57303;SDS011;43150;50.986;18.208;2022-09-27T11:15:02;8.80;;;7.90;;
57303;SDS011;43150;50.986;18.208;2022-09-27T11:17:38;9.70;;;8.70;;
57303;SDS011;43150;50.986;18.208;2022-09-27T11:20:43;10.20;;;9.10;;
57303;SDS011;43150;50.986;18.208;2022-09-27T11:29:10;7.70;;;7.00;;
57303;SDS011;43150;50.986;18.208;2022-09-27T11:34:50;6.40;;;5.80;;
57303;SDS011;43150;50.986;18.208;2022-09-27T11:37:30;6.80;;;6.00;;
57303;SDS011;43150;50.986;18.208;2022-09-27T11:40:23;6.90;;;5.90;;
57303;SDS011;43150;50.986;18.208;2022-09-27T11:51:06;7.60;;;6.80;;
57303;SDS011;43150;50.986;18.208;2022-09-27T12:01:49;8.60;;;7.80;;
57303;SDS011;43150;50.986;18.208;2022-09-27T12:09:57;9.20;;;8.30;;
57303;SDS011;43150;50.986;18.208;2022-09-27T12:12:27;9.10;;;8.20;;
57303;SDS011;43150;50.986;18.208;2022-09-27T12:20:47;9.80;;;8.80;;
57303;SDS011;43150;50.986;18.208;2022-09-27T12:25:52;9.70;;;8.80;;
57303;SDS011;43150;50.986;18.208;2022-09-27T12:28:28;9.90;;;8.90;;
57303;SDS011;43150;50.986;18.208;2022-09-27T12:31:13;10.80;;;9.70;;
57303;SDS011;43150;50.986;18.208;2022-09-27T12:33:58;11.00;;;10.00;;
57303;SDS011;43150;50.986;18.208;2022-09-27T12:37:07;11.40;;;10.30;;
57303;SDS011;43150;50.986;18.208;2022-09-27T12:40:02;11.20;;;10.10;;
57303;SDS011;43150;50.986;18.208;2022-09-27T12:42:38;11.60;;;10.40;;
57303;SDS011;43150;50.986;18.208;2022-09-27T12:45:13;11.60;;;10.40;;
57303;SDS011;43150;50.986;18.208;2022-09-27T12:47:49;11.80;;;10.70;;
57303;SDS011;43150;50.986;18.208;2022-09-27T12:52:56;11.60;;;10.50;;
57303;SDS011;43150;50.986;18.208;2022-09-27T13:00:35;1.60;;;1.50;;
57303;SDS011;43150;50.986;18.208;2022-09-27T13:03:15;2.00;;;1.50;;
57303;SDS011;43150;50.986;18.208;2022-09-27T13:15:12;4.10;;;3.00;;
57303;SDS011;43150;50.986;18.208;2022-09-27T13:25:55;3.60;;;2.20;;
57303;SDS011;43150;50.986;18.208;2022-09-27T13:31:07;2.60;;;1.60;;
57303;SDS011;43150;50.986;18.208;2022-09-27T13:33:45;2.70;;;2.00;;
57303;SDS011;43150;50.986;18.208;2022-09-27T13:47:24;3.40;;;2.60;;
57303;SDS011;43150;50.986;18.208;2022-09-27T13:50:01;3.80;;;2.80;;
57303;SDS011;43150;50.986;18.208;2022-09-27T13:52:56;4.50;;;2.80;;
57303;SDS011;43150;50.986;18.208;2022-09-27T13:55:49;5.30;;;3.50;;
57303;SDS011;43150;50.986;18.208;2022-09-27T14:00:48;5.40;;;3.60;;
57303;SDS011;43150;50.986;18.208;2022-09-27T14:03:17;5.40;;;4.10;;
57303;SDS011;43150;50.986;18.208;2022-09-27T14:06:03;5.10;;;4.20;;
57303;SDS011;43150;50.986;18.208;2022-09-27T14:08:32;7.00;;;5.30;;
57303;SDS011;43150;50.986;18.208;2022-09-27T14:11:11;7.30;;;4.80;;
57303;SDS011;43150;50.986;18.208;2022-09-27T14:13:40;7.30;;;4.40;;
57303;SDS011;43150;50.986;18.208;2022-09-27T14:16:13;5.10;;;3.60;;
57303;SDS011;43150;50.986;18.208;2022-09-27T14:19:15;10.40;;;3.70;;
57303;SDS011;43150;50.986;18.208;2022-09-27T14:21:38;6.80;;;3.40;;
57303;SDS011;43150;50.986;18.208;2022-09-27T14:24:20;7.40;;;4.70;;
57303;SDS011;43150;50.986;18.208;2022-09-27T14:26:50;9.30;;;6.80;;
57303;SDS011;43150;50.986;18.208;2022-09-27T14:29:30;15.90;;;12.30;;
57303;SDS011;43150;50.986;18.208;2022-09-27T14:37:31;18.70;;;16.70;;
57303;SDS011;43150;50.986;18.208;2022-09-27T14:40:01;15.00;;;13.40;;
57303;SDS011;43150;50.986;18.208;2022-09-27T14:45:02;9.30;;;8.40;;
57303;SDS011;43150;50.986;18.208;2022-09-27T14:47:43;7.70;;;6.80;;
57303;SDS011;43150;50.986;18.208;2022-09-27T14:50:22;6.70;;;5.80;;
57303;SDS011;43150;50.986;18.208;2022-09-27T14:52:49;9.80;;;8.00;;
57303;SDS011;43150;50.986;18.208;2022-09-27T14:55:26;14.60;;;13.10;;
57303;SDS011;43150;50.986;18.208;2022-09-27T14:57:55;12.90;;;11.30;;
57303;SDS011;43150;50.986;18.208;2022-09-27T15:00:27;10.50;;;9.30;;
57303;SDS011;43150;50.986;18.208;2022-09-27T15:03:00;11.30;;;9.60;;
57303;SDS011;43150;50.986;18.208;2022-09-27T15:05:32;8.80;;;7.90;;
57303;SDS011;43150;50.986;18.208;2022-09-27T15:08:01;11.10;;;9.90;;
57303;SDS011;43150;50.986;18.208;2022-09-27T15:10:28;15.90;;;14.30;;
57303;SDS011;43150;50.986;18.208;2022-09-27T15:12:56;16.70;;;14.80;;
57303;SDS011;43150;50.986;18.208;2022-09-27T15:15:25;9.30;;;8.30;;
57303;SDS011;43150;50.986;18.208;2022-09-27T15:17:52;13.20;;;12.00;;
57303;SDS011;43150;50.986;18.208;2022-09-27T15:20:20;18.10;;;16.50;;
57303;SDS011;43150;50.986;18.208;2022-09-27T15:22:49;16.40;;;15.00;;
57303;SDS011;43150;50.986;18.208;2022-09-27T15:25:40;13.40;;;12.20;;
57303;SDS011;43150;50.986;18.208;2022-09-27T15:30:36;10.00;;;9.00;;
57303;SDS011;43150;50.986;18.208;2022-09-27T15:33:03;10.80;;;9.00;;
57303;SDS011;43150;50.986;18.208;2022-09-27T15:35:32;8.30;;;6.80;;
57303;SDS011;43150;50.986;18.208;2022-09-27T15:43:19;13.60;;;11.30;;
57303;SDS011;43150;50.986;18.208;2022-09-27T15:46:02;12.20;;;10.90;;
57303;SDS011;43150;50.986;18.208;2022-09-27T15:51:55;19.10;;;17.30;;
57303;SDS011;43150;50.986;18.208;2022-09-27T15:54:24;13.20;;;11.80;;
57303;SDS011;43150;50.986;18.208;2022-09-27T15:56:51;12.90;;;11.70;;
57303;SDS011;43150;50.986;18.208;2022-09-27T15:59:21;22.30;;;20.20;;
57303;SDS011;43150;50.986;18.208;2022-09-27T16:01:53;21.50;;;19.30;;
57303;SDS011;43150;50.986;18.208;2022-09-27T16:04:25;17.80;;;16.10;;
57303;SDS011;43150;50.986;18.208;2022-09-27T16:09:22;19.10;;;17.10;;
57303;SDS011;43150;50.986;18.208;2022-09-27T16:11:49;19.50;;;17.50;;
57303;SDS011;43150;50.986;18.208;2022-09-27T16:14:15;19.80;;;17.70;;
57303;SDS011;43150;50.986;18.208;2022-09-27T16:16:43;20.30;;;18.30;;
57303;SDS011;43150;50.986;18.208;2022-09-27T16:19:10;21.10;;;18.90;;
57303;SDS011;43150;50.986;18.208;2022-09-27T16:21:39;25.00;;;18.80;;
57303;SDS011;43150;50.986;18.208;2022-09-27T16:24:07;17.50;;;15.80;;
57303;SDS011;43150;50.986;18.208;2022-09-27T16:26:36;16.60;;;14.60;;
57303;SDS011;43150;50.986;18.208;2022-09-27T16:29:03;12.50;;;11.10;;
57303;SDS011;43150;50.986;18.208;2022-09-27T16:31:29;12.00;;;10.60;;
57303;SDS011;43150;50.986;18.208;2022-09-27T16:33:55;11.80;;;10.40;;
57303;SDS011;43150;50.986;18.208;2022-09-27T16:36:20;11.40;;;10.20;;
57303;SDS011;43150;50.986;18.208;2022-09-27T16:38:55;12.00;;;10.60;;
57303;SDS011;43150;50.986;18.208;2022-09-27T16:41:21;14.90;;;13.50;;
57303;SDS011;43150;50.986;18.208;2022-09-27T16:43:47;16.60;;;15.00;;
57303;SDS011;43150;50.986;18.208;2022-09-27T16:46:14;18.20;;;16.40;;
57303;SDS011;43150;50.986;18.208;2022-09-27T16:48:45;19.30;;;17.50;;
57303;SDS011;43150;50.986;18.208;2022-09-27T16:51:18;22.90;;;20.80;;
57303;SDS011;43150;50.986;18.208;2022-09-27T16:54:04;24.20;;;21.90;;
57303;SDS011;43150;50.986;18.208;2022-09-27T16:56:32;24.20;;;22.00;;
57303;SDS011;43150;50.986;18.208;2022-09-27T16:58:59;17.80;;;15.90;;
57303;SDS011;43150;50.986;18.208;2022-09-27T17:01:36;16.30;;;14.50;;
57303;SDS011;43150;50.986;18.208;2022-09-27T17:04:13;14.90;;;13.40;;
57303;SDS011;43150;50.986;18.208;2022-09-27T17:06:39;16.50;;;14.90;;
57303;SDS011;43150;50.986;18.208;2022-09-27T17:09:07;15.80;;;14.20;;
57303;SDS011;43150;50.986;18.208;2022-09-27T17:11:33;15.30;;;13.80;;
57303;SDS011;43150;50.986;18.208;2022-09-27T17:14:05;14.60;;;13.00;;
57303;SDS011;43150;50.986;18.208;2022-09-27T17:16:45;14.50;;;13.00;;
57303;SDS011;43150;50.986;18.208;2022-09-27T17:19:13;14.80;;;13.30;;
57303;SDS011;43150;50.986;18.208;2022-09-27T17:21:40;15.40;;;13.70;;
57303;SDS011;43150;50.986;18.208;2022-09-27T17:24:07;19.00;;;16.60;;
57303;SDS011;43150;50.986;18.208;2022-09-27T17:26:34;17.20;;;15.40;;
57303;SDS011;43150;50.986;18.208;2022-09-27T17:29:00;18.50;;;16.60;;
57303;SDS011;43150;50.986;18.208;2022-09-27T17:31:27;18.10;;;16.20;;
57303;SDS011;43150;50.986;18.208;2022-09-27T17:33:55;21.40;;;19.10;;
57303;SDS011;43150;50.986;18.208;2022-09-27T17:36:23;21.20;;;19.00;;
57303;SDS011;43150;50.986;18.208;2022-09-27T17:38:51;21.70;;;19.50;;
57303;SDS011;43150;50.986;18.208;2022-09-27T17:41:22;19.60;;;17.60;;
57303;SDS011;43150;50.986;18.208;2022-09-27T17:43:52;19.20;;;17.20;;
57303;SDS011;43150;50.986;18.208;2022-09-27T17:46:24;18.40;;;16.40;;
57303;SDS011;43150;50.986;18.208;2022-09-27T17:48:50;18.10;;;16.20;;
57303;SDS011;43150;50.986;18.208;2022-09-27T17:51:36;18.10;;;16.30;;
57303;SDS011;43150;50.986;18.208;2022-09-27T17:54:03;17.20;;;15.50;;
57303;SDS011;43150;50.986;18.208;2022-09-27T17:56:31;17.00;;;15.20;;
57303;SDS011;43150;50.986;18.208;2022-09-27T17:58:58;17.10;;;15.40;;